createdAt,value
2019-02-19T00:00:09.595Z,5.70
2019-02-19T00:02:37.757Z,5.37
2019-02-19T00:05:05.637Z,6.33
2019-02-19T00:07:33.032Z,6.30
2019-02-19T00:10:00.829Z,7.40
2019-02-19T00:12:28.921Z,8.23
2019-02-19T00:14:56.684Z,7.50
2019-02-19T00:17:24.863Z,10.23
2019-02-19T00:19:52.511Z,7.10
2019-02-19T00:22:20.550Z,4.77
2019-02-19T00:24:48.382Z,9.00
2019-02-19T00:27:16.246Z,6.30
2019-02-19T00:29:43.620Z,5.13
2019-02-19T00:32:11.655Z,4.40
2019-02-19T00:34:39.227Z,6.07
2019-02-19T00:37:06.899Z,5.70
2019-02-19T00:39:34.694Z,4.67
2019-02-19T00:42:02.632Z,4.83
2019-02-19T00:44:30.384Z,7.53
2019-02-19T00:46:57.859Z,5.00
2019-02-19T00:49:44.134Z,4.67
2019-02-19T00:52:11.935Z,4.23
2019-02-19T00:54:39.362Z,6.40
2019-02-19T00:57:07.770Z,9.83
2019-02-19T00:59:35.750Z,6.27
2019-02-19T01:02:03.068Z,6.73
2019-02-19T01:04:30.740Z,11.43
2019-02-19T01:06:58.247Z,8.90
2019-02-19T01:09:25.880Z,6.07
2019-02-19T01:11:53.790Z,7.10
2019-02-19T01:14:21.697Z,7.17
2019-02-19T01:16:49.887Z,9.50
2019-02-19T01:19:18.059Z,7.30
2019-02-19T01:21:45.656Z,9.07
2019-02-19T01:24:13.075Z,5.27
2019-02-19T01:26:40.320Z,5.60
2019-02-19T01:29:08.170Z,6.70
2019-02-19T01:31:35.855Z,8.53
2019-02-19T01:34:03.278Z,8.97
2019-02-19T01:36:30.642Z,7.63
2019-02-19T01:38:58.275Z,9.30
2019-02-19T01:41:26.078Z,8.67
2019-02-19T01:43:53.637Z,9.63
2019-02-19T01:46:21.413Z,12.50
2019-02-19T01:48:49.506Z,13.93
2019-02-19T01:51:17.149Z,10.40
2019-02-19T01:53:44.946Z,13.60
2019-02-19T01:56:12.844Z,12.40
2019-02-19T01:58:40.365Z,15.20
2019-02-19T02:01:07.970Z,13.50
2019-02-19T02:03:38.268Z,18.33
2019-02-19T02:06:06.226Z,19.73
2019-02-19T02:08:34.161Z,12.80
2019-02-19T02:11:01.716Z,11.80
2019-02-19T02:13:29.471Z,14.43
2019-02-19T02:15:57.043Z,15.47
2019-02-19T02:18:24.617Z,16.33
2019-02-19T02:20:53.029Z,17.80
2019-02-19T02:23:21.057Z,19.27
2019-02-19T02:25:48.486Z,20.87
2019-02-19T02:28:19.137Z,23.90
2019-02-19T02:30:46.548Z,20.70
2019-02-19T02:33:15.118Z,25.93
2019-02-19T02:35:43.047Z,17.00
2019-02-19T02:38:10.846Z,18.63
2019-02-19T02:40:38.528Z,17.23
2019-02-19T02:43:05.995Z,19.50
2019-02-19T02:45:34.143Z,23.50
2019-02-19T02:48:02.397Z,16.63
2019-02-19T02:50:30.679Z,20.87
2019-02-19T02:52:59.036Z,14.17
2019-02-19T02:55:29.430Z,20.67
2019-02-19T02:57:57.232Z,15.60
2019-02-19T03:00:24.769Z,20.03
2019-02-19T03:02:52.086Z,18.00
2019-02-19T03:05:19.836Z,15.60
2019-02-19T03:07:50.616Z,19.87
2019-02-19T03:10:18.287Z,13.77
2019-02-19T03:12:46.251Z,15.97
2019-02-19T03:15:14.521Z,17.43
2019-02-19T03:17:42.305Z,15.37
2019-02-19T03:20:09.967Z,23.63
2019-02-19T03:22:37.200Z,17.30
2019-02-19T03:25:05.219Z,24.07
2019-02-19T03:27:32.830Z,18.87
2019-02-19T03:30:00.728Z,15.87
2019-02-19T03:32:29.109Z,18.00
2019-02-19T03:34:56.838Z,14.33
2019-02-19T03:37:25.315Z,12.67
2019-02-19T03:39:52.706Z,14.70
2019-02-19T03:42:22.627Z,15.90
2019-02-19T03:44:51.009Z,14.97
2019-02-19T03:47:19.569Z,15.27
2019-02-19T03:49:48.174Z,24.33
2019-02-19T03:52:17.223Z,17.07
2019-02-19T03:54:45.287Z,16.63
2019-02-19T03:57:12.819Z,20.23
2019-02-19T03:59:40.427Z,22.33
2019-02-19T04:02:08.820Z,18.40
2019-02-19T04:04:36.321Z,17.77
2019-02-19T04:07:04.547Z,14.77
2019-02-19T04:09:32.436Z,16.30
2019-02-19T04:12:00.520Z,21.17
2019-02-19T04:14:28.315Z,19.60
2019-02-19T04:16:57.121Z,17.90
2019-02-19T04:19:24.799Z,16.83
2019-02-19T04:21:52.546Z,17.63
2019-02-19T04:24:20.295Z,21.33
2019-02-19T04:26:48.001Z,20.80
2019-02-19T04:29:15.862Z,17.90
2019-02-19T04:31:43.765Z,26.83
2019-02-19T04:34:12.295Z,19.60
2019-02-19T04:36:40.190Z,18.23
2019-02-19T04:39:08.168Z,20.23
2019-02-19T04:41:35.648Z,19.97
2019-02-19T04:44:06.279Z,22.13
2019-02-19T04:46:34.413Z,20.23
2019-02-19T04:49:02.288Z,24.10
2019-02-19T04:51:30.450Z,19.97
2019-02-19T04:53:57.919Z,24.07
2019-02-19T04:56:26.295Z,18.30
2019-02-19T04:58:53.834Z,20.17
2019-02-19T05:01:21.711Z,22.00
2019-02-19T05:03:49.429Z,18.63
2019-02-19T05:06:17.051Z,26.70
2019-02-19T05:08:45.129Z,20.80
2019-02-19T05:11:13.073Z,22.03
2019-02-19T05:13:40.977Z,22.70
2019-02-19T05:16:09.057Z,24.10
2019-02-19T05:18:36.971Z,25.20
2019-02-19T05:21:04.993Z,23.57
2019-02-19T05:23:33.215Z,27.83
2019-02-19T05:26:00.893Z,22.83
2019-02-19T05:28:28.421Z,21.07
2019-02-19T05:30:56.520Z,19.60
2019-02-19T05:33:24.399Z,17.93
2019-02-19T05:35:51.946Z,22.47
2019-02-19T05:38:19.343Z,23.93
2019-02-19T05:40:47.240Z,21.83
2019-02-19T05:43:14.797Z,26.57
2019-02-19T05:45:42.915Z,20.10
2019-02-19T05:48:11.175Z,23.80
2019-02-19T05:50:38.808Z,24.50
2019-02-19T05:53:07.020Z,22.30
2019-02-19T05:55:34.546Z,23.30
2019-02-19T05:58:02.121Z,21.20
2019-02-19T06:00:29.995Z,24.10
2019-02-19T06:02:57.728Z,22.73
2019-02-19T06:05:25.633Z,21.50
2019-02-19T06:07:53.559Z,27.90
2019-02-19T06:10:21.279Z,24.73
2019-02-19T06:12:48.438Z,25.37
2019-02-19T06:15:16.067Z,25.03
2019-02-19T06:17:43.627Z,18.73
2019-02-19T06:20:11.443Z,20.27
2019-02-19T06:22:39.561Z,20.53
2019-02-19T06:25:07.876Z,19.77
2019-02-19T06:27:36.552Z,19.37
2019-02-19T06:30:07.117Z,17.97
2019-02-19T06:32:34.822Z,48.63
2019-02-19T06:35:02.796Z,51.43
2019-02-19T06:37:30.667Z,36.77
2019-02-19T06:39:59.160Z,27.80
2019-02-19T06:42:27.308Z,19.10
2019-02-19T06:44:55.282Z,17.80
2019-02-19T06:47:24.280Z,20.83
2019-02-19T06:49:53.443Z,21.00
2019-02-19T06:52:21.293Z,19.30
2019-02-19T06:54:49.517Z,18.70
2019-02-19T06:57:17.404Z,21.47
2019-02-19T06:59:45.151Z,17.40
2019-02-19T07:02:35.426Z,15.40
2019-02-19T07:05:06.697Z,16.10
2019-02-19T07:07:34.858Z,16.13
2019-02-19T07:10:02.734Z,13.67
2019-02-19T07:12:30.763Z,86.80
2019-02-19T07:14:59.483Z,84.40
2019-02-19T07:17:27.246Z,40.40
2019-02-19T07:19:55.106Z,20.43
2019-02-19T07:22:23.960Z,21.33
2019-02-19T07:24:51.765Z,16.93
2019-02-19T07:27:20.842Z,19.17
2019-02-19T07:29:48.939Z,14.07
2019-02-19T07:32:21.162Z,18.13
2019-02-19T07:34:48.893Z,16.07
2019-02-19T07:37:17.222Z,18.70
2019-02-19T07:39:44.822Z,14.70
2019-02-19T07:42:13.385Z,19.13
2019-02-19T07:44:42.103Z,15.23
2019-02-19T07:47:10.043Z,21.50
2019-02-19T07:49:38.118Z,15.77
2019-02-19T07:52:07.527Z,16.33
2019-02-19T07:54:35.766Z,36.33
2019-02-19T07:57:04.237Z,26.63
2019-02-19T07:59:31.993Z,19.40
2019-02-19T08:02:00.478Z,27.00
2019-02-19T08:04:28.143Z,20.00
2019-02-19T08:06:55.993Z,14.93
2019-02-19T08:09:24.429Z,17.67
2019-02-19T08:11:52.604Z,16.10
2019-02-19T08:14:20.561Z,18.60
2019-02-19T08:16:49.205Z,16.40
2019-02-19T08:19:17.313Z,16.43
2019-02-19T08:21:45.500Z,19.30
2019-02-19T08:24:14.525Z,18.13
2019-02-19T08:26:42.822Z,16.17
2019-02-19T08:29:14.028Z,18.70
2019-02-19T08:31:41.451Z,16.13
2019-02-19T08:34:09.121Z,20.20
2019-02-19T08:36:36.805Z,20.33
2019-02-19T08:39:05.042Z,35.00
2019-02-19T08:41:33.161Z,48.00
2019-02-19T08:44:01.001Z,27.23
2019-02-19T08:46:29.113Z,15.43
2019-02-19T08:48:57.467Z,15.90
2019-02-19T08:51:26.702Z,15.27
2019-02-19T08:53:54.570Z,16.73
2019-02-19T08:56:22.389Z,12.50
2019-02-19T08:58:51.123Z,17.97
2019-02-19T09:01:19.777Z,16.13
2019-02-19T09:03:47.587Z,13.23
2019-02-19T09:06:15.836Z,13.87
2019-02-19T09:08:43.787Z,9.23
2019-02-19T09:11:12.067Z,10.27
2019-02-19T09:13:40.234Z,14.73
2019-02-19T09:16:08.194Z,13.77
2019-02-19T09:18:36.493Z,11.53
2019-02-19T09:21:04.743Z,14.00
2019-02-19T09:23:32.517Z,13.10
2019-02-19T09:26:00.480Z,12.40
2019-02-19T09:28:28.649Z,15.90
2019-02-19T09:30:56.790Z,16.63
2019-02-19T09:33:24.808Z,11.47
2019-02-19T09:35:52.763Z,11.23
2019-02-19T09:38:21.039Z,14.23
2019-02-19T09:40:49.664Z,11.03
2019-02-19T09:43:18.524Z,12.57
2019-02-19T09:45:46.562Z,15.37
2019-02-19T09:48:14.475Z,13.20
2019-02-19T09:50:42.123Z,11.60
2019-02-19T09:53:10.131Z,9.97
2019-02-19T09:55:38.079Z,16.80
2019-02-19T09:58:05.668Z,11.20
2019-02-19T10:00:33.279Z,7.27
2019-02-19T10:03:00.908Z,10.90
2019-02-19T10:05:29.157Z,10.23
2019-02-19T10:08:00.327Z,11.77
2019-02-19T10:10:28.641Z,14.10
2019-02-19T10:12:56.440Z,8.90
2019-02-19T10:15:24.619Z,11.17
2019-02-19T10:17:52.545Z,10.50
2019-02-19T10:20:20.614Z,10.30
2019-02-19T10:22:48.690Z,10.27
2019-02-19T10:25:16.573Z,11.90
2019-02-19T10:27:44.841Z,12.50
2019-02-19T10:30:13.513Z,15.57
2019-02-19T10:32:41.673Z,9.67
2019-02-19T10:35:09.858Z,10.93
2019-02-19T10:37:37.352Z,17.70
2019-02-19T10:40:10.185Z,10.27
2019-02-19T10:42:38.061Z,15.27
2019-02-19T10:45:08.503Z,7.17
2019-02-19T10:47:36.253Z,9.13
2019-02-19T10:50:04.710Z,10.27
2019-02-19T10:52:32.801Z,9.50
2019-02-19T10:55:00.521Z,12.03
2019-02-19T10:57:28.720Z,9.73
2019-02-19T10:59:56.374Z,6.83
2019-02-19T11:02:24.496Z,10.50
2019-02-19T11:04:52.153Z,9.07
2019-02-19T11:07:19.840Z,8.93
2019-02-19T11:09:47.855Z,6.77
2019-02-19T11:12:15.895Z,18.00
2019-02-19T11:14:44.112Z,34.43
2019-02-19T11:17:12.225Z,25.10
2019-02-19T11:19:41.619Z,18.97
2019-02-19T11:22:09.891Z,9.43
2019-02-19T11:24:38.198Z,10.40
2019-02-19T11:27:06.156Z,4.90
2019-02-19T11:29:34.023Z,14.73
2019-02-19T11:32:01.965Z,10.50
2019-02-19T11:34:29.772Z,7.30
2019-02-19T11:36:57.517Z,5.60
2019-02-19T11:39:25.827Z,8.80
2019-02-19T11:41:54.198Z,6.67
2019-02-19T11:44:21.974Z,14.13
2019-02-19T11:46:52.117Z,10.13
2019-02-19T11:49:19.982Z,11.03
2019-02-19T11:51:47.762Z,5.30
2019-02-19T11:54:16.234Z,23.43
2019-02-19T11:56:44.016Z,29.70
2019-02-19T11:59:13.168Z,16.67
2019-02-19T12:01:41.230Z,10.03
2019-02-19T12:04:09.536Z,11.83
2019-02-19T12:06:42.653Z,5.43
2019-02-19T12:09:10.601Z,6.27
2019-02-19T12:11:38.068Z,7.93
2019-02-19T12:14:05.787Z,8.93
2019-02-19T12:16:33.557Z,5.50
2019-02-19T12:19:01.709Z,10.93
2019-02-19T12:21:29.967Z,4.00
2019-02-19T12:23:57.906Z,5.90
2019-02-19T12:26:25.758Z,7.23
2019-02-19T12:28:53.762Z,6.47
2019-02-19T12:31:21.435Z,7.53
2019-02-19T12:33:49.218Z,7.60
2019-02-19T12:36:17.364Z,9.20
2019-02-19T12:38:46.024Z,6.57
2019-02-19T12:41:14.297Z,7.83
2019-02-19T12:43:42.057Z,6.37
2019-02-19T12:46:10.581Z,9.80
2019-02-19T12:48:39.951Z,13.03
2019-02-19T12:51:08.069Z,7.13
2019-02-19T12:53:36.567Z,6.90
2019-02-19T12:56:05.732Z,3.23
2019-02-19T12:58:33.583Z,8.33
2019-02-19T13:01:01.129Z,9.53
2019-02-19T13:03:28.894Z,6.03
2019-02-19T13:05:57.203Z,6.63
2019-02-19T13:08:24.834Z,15.00
2019-02-19T13:10:52.697Z,11.97
2019-02-19T13:13:20.487Z,5.20
2019-02-19T13:15:48.834Z,3.90
2019-02-19T13:18:16.594Z,4.93
2019-02-19T13:20:44.471Z,9.73
2019-02-19T13:23:12.184Z,8.50
2019-02-19T13:25:40.096Z,18.33
2019-02-19T13:28:08.082Z,17.07
2019-02-19T13:30:36.690Z,18.83
2019-02-19T13:33:05.193Z,12.30
2019-02-19T13:35:33.617Z,6.63
2019-02-19T13:38:01.750Z,3.33
2019-02-19T13:40:30.057Z,5.50
2019-02-19T13:42:58.243Z,7.80
2019-02-19T13:45:27.764Z,7.40
2019-02-19T13:47:56.159Z,10.27
2019-02-19T13:50:23.831Z,6.27
2019-02-19T13:53:05.215Z,6.03
2019-02-19T13:55:36.513Z,6.03
2019-02-19T13:58:04.884Z,5.60
2019-02-19T14:00:34.032Z,7.40
2019-02-19T14:03:02.704Z,5.40
2019-02-19T14:05:31.129Z,7.63
2019-02-19T14:08:00.684Z,8.47
2019-02-19T14:10:29.572Z,7.60
2019-02-19T14:13:00.833Z,9.30
2019-02-19T14:15:36.653Z,6.10
2019-02-19T14:18:06.969Z,10.70
2019-02-19T14:20:55.933Z,8.90
2019-02-19T14:23:42.320Z,7.27
2019-02-19T14:26:21.598Z,5.57
2019-02-19T14:29:08.068Z,8.90
2019-02-19T14:31:53.861Z,9.60
2019-02-19T14:34:41.271Z,5.77
2019-02-19T14:37:38.768Z,5.53
2019-02-19T14:40:29.260Z,7.23
2019-02-19T14:43:28.841Z,6.13
2019-02-19T14:46:13.901Z,5.70
2019-02-19T14:49:04.099Z,9.00
2019-02-19T14:51:51.442Z,4.40
2019-02-19T14:54:37.425Z,5.80
2019-02-19T14:57:27.535Z,5.07
2019-02-19T15:00:17.899Z,7.63
2019-02-19T15:02:59.323Z,31.57
2019-02-19T15:05:58.749Z,17.20
2019-02-19T15:08:45.032Z,9.90
2019-02-19T15:11:34.960Z,11.50
2019-02-19T15:14:20.837Z,6.20
2019-02-19T15:17:08.090Z,5.87
2019-02-19T15:19:42.539Z,5.50
2019-02-19T15:22:35.312Z,10.63
2019-02-19T15:25:15.204Z,7.20
2019-02-19T15:28:02.625Z,6.70
2019-02-19T15:30:52.950Z,8.20
2019-02-19T15:33:39.733Z,5.67
2019-02-19T15:36:45.252Z,3.63
2019-02-19T15:39:32.028Z,8.77
2019-02-19T15:42:17.915Z,6.27
2019-02-19T15:45:03.668Z,5.40
2019-02-19T15:47:49.967Z,11.00
2019-02-19T15:50:35.418Z,9.50
2019-02-19T15:53:28.484Z,3.53
2019-02-19T15:56:30.806Z,8.37
2019-02-19T15:59:11.256Z,6.00
2019-02-19T16:01:57.509Z,7.10
2019-02-19T16:04:48.037Z,4.30
2019-02-19T16:07:38.560Z,13.13
2019-02-19T16:10:24.442Z,13.90
2019-02-19T16:13:17.272Z,10.90
2019-02-19T16:16:03.582Z,7.10
2019-02-19T16:18:41.054Z,4.03
2019-02-19T16:21:17.941Z,6.20
2019-02-19T16:24:02.007Z,7.57
2019-02-19T16:27:01.135Z,10.33
2019-02-19T16:29:41.439Z,4.53
2019-02-19T16:32:31.485Z,8.27
2019-02-19T16:35:30.520Z,6.77
2019-02-19T16:38:26.732Z,8.87
2019-02-19T16:41:18.174Z,6.83
2019-02-19T16:44:08.504Z,7.73
2019-02-19T16:46:54.371Z,10.50
2019-02-19T16:49:37.451Z,5.80
2019-02-19T16:52:11.390Z,4.17
2019-02-19T16:55:13.184Z,9.60
2019-02-19T16:57:52.822Z,3.27
2019-02-19T17:00:43.278Z,8.50
2019-02-19T17:03:30.111Z,4.93
2019-02-19T17:06:21.386Z,8.50
2019-02-19T17:09:05.574Z,11.90
2019-02-19T17:11:56.815Z,10.30
2019-02-19T17:14:48.995Z,9.23
2019-02-19T17:17:39.828Z,8.90
2019-02-19T17:20:38.875Z,5.60
2019-02-19T17:23:28.064Z,10.53
2019-02-19T17:26:14.197Z,8.43
2019-02-19T17:29:02.260Z,7.00
2019-02-19T17:31:35.818Z,10.37
2019-02-19T17:34:35.009Z,5.83
2019-02-19T17:37:11.792Z,5.43
2019-02-19T17:39:44.744Z,5.13
2019-02-19T17:42:41.212Z,6.83
2019-02-19T17:45:34.940Z,8.80
2019-02-19T17:48:20.758Z,5.27
2019-02-19T17:51:07.940Z,7.57
2019-02-19T17:53:58.194Z,3.47
2019-02-19T17:56:52.349Z,11.67
2019-02-19T17:59:48.627Z,5.87
2019-02-19T18:02:51.434Z,7.43
2019-02-19T18:05:26.559Z,5.90
2019-02-19T18:08:13.785Z,11.90
2019-02-19T18:11:04.967Z,14.73
2019-02-19T18:13:43.449Z,8.40
2019-02-19T18:16:19.947Z,8.97
2019-02-19T18:18:51.056Z,5.80
2019-02-19T18:21:20.007Z,5.27
2019-02-19T18:23:47.543Z,5.30
2019-02-19T18:26:15.846Z,4.83
2019-02-19T18:28:43.588Z,6.47
2019-02-19T18:31:11.721Z,8.20
2019-02-19T18:33:39.645Z,7.90
2019-02-19T18:36:07.245Z,7.03
2019-02-19T18:38:36.946Z,5.00
2019-02-19T18:41:04.732Z,10.27
2019-02-19T18:43:32.584Z,5.47
2019-02-19T18:46:00.680Z,7.97
2019-02-19T18:48:28.389Z,6.63
2019-02-19T18:50:58.628Z,11.63
2019-02-19T18:53:27.588Z,7.47
2019-02-19T18:55:55.365Z,9.17
2019-02-19T18:58:23.210Z,6.87
2019-02-19T19:00:52.162Z,6.63
2019-02-19T19:03:19.731Z,9.20
2019-02-19T19:05:47.996Z,12.73
2019-02-19T19:08:15.438Z,7.97
2019-02-19T19:10:42.975Z,6.23
2019-02-19T19:13:10.838Z,7.27
2019-02-19T19:15:38.847Z,6.43
2019-02-19T19:18:08.692Z,9.10
2019-02-19T19:20:36.870Z,6.30
2019-02-19T19:23:05.103Z,7.93
2019-02-19T19:25:32.738Z,6.20
2019-02-19T19:28:00.723Z,9.00
2019-02-19T19:30:29.167Z,12.80
2019-02-19T19:32:56.612Z,6.67
2019-02-19T19:35:24.730Z,11.20
2019-02-19T19:37:52.669Z,5.93
2019-02-19T19:40:21.017Z,7.70
2019-02-19T19:42:49.104Z,7.07
2019-02-19T19:45:16.862Z,12.40
2019-02-19T19:47:44.724Z,6.70
2019-02-19T19:50:12.548Z,7.13
2019-02-19T19:52:41.679Z,17.77
2019-02-19T19:55:09.349Z,13.43
2019-02-19T19:57:37.484Z,10.00
2019-02-19T20:00:05.486Z,13.47
2019-02-19T20:02:33.547Z,9.13
2019-02-19T20:05:01.451Z,10.87
2019-02-19T20:07:29.556Z,8.13
2019-02-19T20:09:58.011Z,8.23
2019-02-19T20:12:25.425Z,8.73
2019-02-19T20:14:53.147Z,11.13
2019-02-19T20:17:21.007Z,16.47
2019-02-19T20:19:48.549Z,11.57
2019-02-19T20:22:16.522Z,7.47
2019-02-19T20:24:44.098Z,9.33
2019-02-19T20:27:12.193Z,9.07
2019-02-19T20:29:40.142Z,10.43
2019-02-19T20:32:07.691Z,10.70
2019-02-19T20:34:35.771Z,7.20
2019-02-19T20:37:03.436Z,7.90
2019-02-19T20:39:30.921Z,9.60
2019-02-19T20:41:59.224Z,7.93
2019-02-19T20:44:27.093Z,6.87
2019-02-19T20:47:04.754Z,7.93
2019-02-19T20:49:32.990Z,9.10
2019-02-19T20:52:01.253Z,12.30
2019-02-19T20:54:29.345Z,8.77
2019-02-19T20:56:57.330Z,12.17
2019-02-19T20:59:25.327Z,8.40
2019-02-19T21:01:53.947Z,5.23
2019-02-19T21:04:24.789Z,4.63
2019-02-19T21:06:52.215Z,15.50
2019-02-19T21:09:21.197Z,7.30
2019-02-19T21:11:48.807Z,15.10
2019-02-19T21:14:16.856Z,22.10
2019-02-19T21:16:45.456Z,13.03
2019-02-19T21:19:12.937Z,12.17
2019-02-19T21:21:45.002Z,8.23
2019-02-19T21:24:11.022Z,12.87
2019-02-19T21:26:38.922Z,8.30
2019-02-19T21:29:08.422Z,13.93
2019-02-19T21:31:35.823Z,8.93
2019-02-19T21:34:04.026Z,9.07
2019-02-19T21:36:31.986Z,11.80
2019-02-19T21:39:00.122Z,5.53
2019-02-19T21:41:27.779Z,9.50
2019-02-19T21:43:55.221Z,6.90
2019-02-19T21:46:23.136Z,8.27
2019-02-19T21:48:51.024Z,10.87
2019-02-19T21:51:18.884Z,9.97
2019-02-19T21:53:47.642Z,8.60
2019-02-19T21:56:15.527Z,8.87
2019-02-19T21:58:43.724Z,8.20
2019-02-19T22:01:11.847Z,8.20
2019-02-19T22:03:39.521Z,14.60
2019-02-19T22:06:07.643Z,9.70
2019-02-19T22:08:35.798Z,5.93
2019-02-19T22:11:03.446Z,11.60
2019-02-19T22:13:31.643Z,8.50
2019-02-19T22:15:59.142Z,13.50
2019-02-19T22:18:27.055Z,11.50
2019-02-19T22:21:00.330Z,9.20
2019-02-19T22:23:28.160Z,11.03
2019-02-19T22:25:56.049Z,10.90
2019-02-19T22:28:24.221Z,9.10
2019-02-19T22:30:52.831Z,6.60
2019-02-19T22:33:20.718Z,9.87
2019-02-19T22:35:48.264Z,9.00
2019-02-19T22:38:16.334Z,13.03
2019-02-19T22:40:44.048Z,13.10
2019-02-19T22:43:12.136Z,10.23
2019-02-19T22:45:40.019Z,11.53
2019-02-19T22:48:07.963Z,8.27
2019-02-19T22:50:35.937Z,12.03
2019-02-19T22:53:06.609Z,14.13
2019-02-19T22:55:53.946Z,10.87
2019-02-19T22:58:21.970Z,8.10
2019-02-19T23:01:09.058Z,15.47
2019-02-19T23:03:38.533Z,14.40
2019-02-19T23:06:06.781Z,22.40
2019-02-19T23:08:34.675Z,16.60
2019-02-19T23:11:02.456Z,14.33
2019-02-19T23:13:30.667Z,13.67
2019-02-19T23:15:58.410Z,13.20
2019-02-19T23:18:26.162Z,10.83
2019-02-19T23:21:05.307Z,9.73
2019-02-19T23:23:33.708Z,12.20
2019-02-19T23:26:01.673Z,7.73
2019-02-19T23:28:30.056Z,7.43
2019-02-19T23:30:57.803Z,14.43
2019-02-19T23:33:25.387Z,12.73
2019-02-19T23:36:01.041Z,17.80
2019-02-19T23:38:28.964Z,11.70
2019-02-19T23:40:56.941Z,8.53
2019-02-19T23:43:24.319Z,10.23
2019-02-19T23:45:51.901Z,9.20
2019-02-19T23:48:19.748Z,9.17
2019-02-19T23:50:47.253Z,11.73
2019-02-19T23:53:15.603Z,13.23
2019-02-19T23:55:43.339Z,13.33
2019-02-19T23:58:13.760Z,13.87
